Terminal Aerodrome Forecast
Issued by NWS

Home | Current Version | Previous Version | Text Only | Print | Product List | Glossary On
Versions: 1 2 3 4 5 6 7 8 9 10 11 12 13 14
000
FTUS42 KTAE 152300
TAFECP
TAF
KECP 152320Z 1600/1624 22005KT P6SM FEW040 OVC250
     FM161200 36004KT P6SM OVC250
     FM162000 23008KT 6SM TSRA BKN025CB OVC250=

USA.gov is the U.S. government's official web portal to all federal, state and local government web resources and services.